createdAt,value
2016-07-12T00:00:12.488Z,94.45
2016-07-12T00:01:12.489Z,94.45
2016-07-12T00:02:12.465Z,94.84
2016-07-12T00:03:12.466Z,94.64
2016-07-12T00:04:12.491Z,95.41
2016-07-12T00:05:12.466Z,95.22
2016-07-12T00:06:12.490Z,95.31
2016-07-12T00:07:12.490Z,95.12
2016-07-12T00:08:12.518Z,95.51
2016-07-12T00:09:12.493Z,95.41
2016-07-12T00:10:12.498Z,95.7
2016-07-12T00:11:12.494Z,95.89
2016-07-12T00:12:12.501Z,95.89
2016-07-12T00:13:12.511Z,95.79
2016-07-12T00:14:12.489Z,95.6
2016-07-12T00:15:12.625Z,96.75
2016-07-12T00:16:12.491Z,95.79
2016-07-12T00:17:12.483Z,95.89
2016-07-12T00:18:12.500Z,95.51
2016-07-12T00:19:12.515Z,96.08
2016-07-12T00:20:12.490Z,95.41
2016-07-12T00:21:12.495Z,95.51
2016-07-12T00:22:12.503Z,95.7
2016-07-12T00:23:12.491Z,95.6
2016-07-12T00:24:12.491Z,95.79
2016-07-12T00:25:12.477Z,96.51
2016-07-12T00:26:12.479Z,96.13
2016-07-12T00:27:12.491Z,96.8
2016-07-12T00:28:12.492Z,96.75
2016-07-12T00:29:12.484Z,96.94
2016-07-12T00:30:12.501Z,96.8
2016-07-12T00:31:12.528Z,96.99
2016-07-12T00:32:12.531Z,96.8
2016-07-12T00:33:12.492Z,96.94
2016-07-12T00:34:12.514Z,96.08
2016-07-12T00:35:12.499Z,95.94
2016-07-12T00:36:12.524Z,96.7
2016-07-12T00:37:12.557Z,96.03
2016-07-12T00:38:12.528Z,96.89
2016-07-12T00:39:12.559Z,97.28
2016-07-12T00:40:12.514Z,97.09
2016-07-12T00:41:12.522Z,97.75
2016-07-12T00:42:12.533Z,97.28
2016-07-12T00:43:12.539Z,97.09
2016-07-12T00:44:12.517Z,97.09
2016-07-12T00:45:12.503Z,97.28
2016-07-12T00:46:12.539Z,96.7
2016-07-12T00:47:12.515Z,96.61
2016-07-12T00:48:12.520Z,96.7
2016-07-12T00:49:12.514Z,97.28
2016-07-12T00:50:12.537Z,97.28
2016-07-12T00:51:12.524Z,97.66
2016-07-12T00:52:12.518Z,98.24
2016-07-12T00:53:12.556Z,97.75
2016-07-12T00:54:12.523Z,97.56
2016-07-12T00:55:12.541Z,98.05
2016-07-12T00:56:12.526Z,97.85
2016-07-12T00:57:12.586Z,97.28
2016-07-12T00:58:12.548Z,98.43
2016-07-12T00:59:12.526Z,98.14
2016-07-12T01:00:12.518Z,98.62
2016-07-12T01:01:12.524Z,98.81
2016-07-12T01:02:12.520Z,98.43
2016-07-12T01:03:12.554Z,98.71
2016-07-12T01:04:12.526Z,98.52
2016-07-12T01:05:12.558Z,98.33
2016-07-12T01:06:12.534Z,98.71
2016-07-12T01:07:12.525Z,98.71
2016-07-12T01:08:12.561Z,98.71
2016-07-12T01:09:12.517Z,98.43
2016-07-12T01:10:12.537Z,98.71
2016-07-12T01:11:12.561Z,98.43
2016-07-12T01:12:12.552Z,97.66
2016-07-12T01:13:12.583Z,98.05
2016-07-12T01:14:12.574Z,97.38
2016-07-12T01:15:12.566Z,97.75
2016-07-12T01:16:12.678Z,97.75
2016-07-12T01:17:12.567Z,96.99
2016-07-12T01:18:12.553Z,97.28
2016-07-12T01:19:12.582Z,97.47
2016-07-12T01:20:12.573Z,97.95
2016-07-12T01:21:13.181Z,97.56
2016-07-12T01:22:12.557Z,97.28
2016-07-12T01:23:12.553Z,96.8
2016-07-12T01:24:12.583Z,96.42
2016-07-12T01:25:12.553Z,96.32
2016-07-12T01:26:12.552Z,96.42
2016-07-12T01:27:12.557Z,96.61
2016-07-12T01:28:12.555Z,96.8
2016-07-12T01:29:12.562Z,96.32
2016-07-12T01:30:12.587Z,95.84
2016-07-12T01:31:12.583Z,95.46
2016-07-12T01:32:12.563Z,95.65
2016-07-12T01:33:12.579Z,95.65
2016-07-12T01:34:12.554Z,95.36
2016-07-12T01:35:12.567Z,95.84
2016-07-12T01:36:12.589Z,95.84
2016-07-12T01:37:12.552Z,96.42
2016-07-12T01:38:12.555Z,95.36
2016-07-12T01:39:12.591Z,95.56
2016-07-12T01:40:12.594Z,94.98
2016-07-12T01:41:12.592Z,95.65
2016-07-12T01:42:12.590Z,95.84
2016-07-12T01:43:12.582Z,95.75
2016-07-12T01:44:12.560Z,95.17
2016-07-12T01:45:12.607Z,95.56
2016-07-12T01:46:12.556Z,95.65
2016-07-12T01:47:12.596Z,96.03
2016-07-12T01:48:12.599Z,95.94
2016-07-12T01:49:12.587Z,95.36
2016-07-12T01:50:12.581Z,95.75
2016-07-12T01:51:12.594Z,95.65
2016-07-12T01:52:12.565Z,95.75
2016-07-12T01:53:12.591Z,95.84
2016-07-12T01:54:12.578Z,96.42
2016-07-12T01:55:12.585Z,96.13
2016-07-12T01:56:12.588Z,96.03
2016-07-12T01:57:12.584Z,96.03
2016-07-12T01:58:12.578Z,96.8
2016-07-12T01:59:12.584Z,96.42
2016-07-12T02:00:12.576Z,96.89
2016-07-12T02:01:12.583Z,96.89
2016-07-12T02:02:12.569Z,96.89
2016-07-12T02:03:12.578Z,97.13
2016-07-12T02:04:12.614Z,97.38
2016-07-12T02:05:12.621Z,97.52
2016-07-12T02:06:12.585Z,97.52
2016-07-12T02:07:12.587Z,97.61
2016-07-12T02:08:12.587Z,97.9
2016-07-12T02:09:12.616Z,97.71
2016-07-12T02:10:12.627Z,97.52
2016-07-12T02:11:12.591Z,97.9
2016-07-12T02:12:12.590Z,98.47
2016-07-12T02:13:12.609Z,98.76
2016-07-12T02:14:12.584Z,98.95
2016-07-12T02:15:12.579Z,98.95
2016-07-12T02:16:12.604Z,98.19
2016-07-12T02:17:12.592Z,98.76
2016-07-12T02:18:12.596Z,98.38
2016-07-12T02:19:12.666Z,99.24
2016-07-12T02:20:12.578Z,98.19
2016-07-12T02:21:12.615Z,98.66
2016-07-12T02:22:12.620Z,99.15
2016-07-12T02:23:12.614Z,98.76
2016-07-12T02:24:12.860Z,98.86
2016-07-12T02:25:12.625Z,99.05
2016-07-12T02:26:12.621Z,98.95
2016-07-12T02:27:12.637Z,99.05
2016-07-12T02:28:12.623Z,99.05
2016-07-12T02:29:12.632Z,98.86
2016-07-12T02:30:12.622Z,98.28
2016-07-12T02:31:12.656Z,98.66
2016-07-12T02:32:12.632Z,98.57
2016-07-12T02:33:12.638Z,97.52
2016-07-12T02:34:12.659Z,98.28
2016-07-12T02:35:12.673Z,98.38
2016-07-12T02:36:12.603Z,98.86
2016-07-12T02:37:12.775Z,98.47
2016-07-12T02:38:12.722Z,98.28
2016-07-12T02:39:12.618Z,98.28
2016-07-12T02:40:12.622Z,99.15
2016-07-12T02:41:12.680Z,99.05
2016-07-12T02:42:12.619Z,99.15
2016-07-12T02:43:12.619Z,98.95
2016-07-12T02:44:12.661Z,98.86
2016-07-12T02:45:12.638Z,98.86
2016-07-12T02:46:12.671Z,98.61
2016-07-12T02:47:12.943Z,99.33
2016-07-12T02:48:12.630Z,98.86
2016-07-12T02:49:12.637Z,99.19
2016-07-12T02:50:12.626Z,99.86
2016-07-12T02:51:12.651Z,99.99
2016-07-12T02:52:12.621Z,99.99
2016-07-12T02:53:12.606Z,99.99
2016-07-12T02:54:12.621Z,99.99
2016-07-12T02:55:12.619Z,99.99
2016-07-12T02:56:12.652Z,99.99
2016-07-12T02:57:12.663Z,99.99
2016-07-12T02:58:12.672Z,99.99
2016-07-12T02:59:12.657Z,99.99
2016-07-12T03:00:12.618Z,99.99
2016-07-12T03:01:12.650Z,99.99
2016-07-12T03:02:12.649Z,99.99
2016-07-12T03:03:12.617Z,99.99
2016-07-12T03:04:12.650Z,99.99
2016-07-12T03:05:12.673Z,99.99
2016-07-12T03:06:12.975Z,99.99
2016-07-12T03:07:13.102Z,99.99
2016-07-12T03:08:12.684Z,99.99
2016-07-12T03:09:12.643Z,99.99
2016-07-12T03:10:12.650Z,99.99
2016-07-12T03:11:12.902Z,99.99
2016-07-12T03:12:12.648Z,99.99
2016-07-12T03:13:12.651Z,99.99
2016-07-12T03:14:12.644Z,99.99
2016-07-12T03:15:13.190Z,99.99
2016-07-12T03:16:12.656Z,99.99
2016-07-12T03:17:12.664Z,99.99
2016-07-12T03:18:12.651Z,99.99
2016-07-12T03:19:12.687Z,99.99
2016-07-12T03:20:12.770Z,99.99
2016-07-12T03:21:13.041Z,99.99
2016-07-12T03:22:12.663Z,99.99
2016-07-12T03:23:12.728Z,99.99
2016-07-12T03:24:13.200Z,99.99
2016-07-12T03:25:12.698Z,99.99
2016-07-12T03:26:13.163Z,99.99
2016-07-12T03:27:12.699Z,99.99
2016-07-12T03:28:12.670Z,99.99
2016-07-12T03:29:12.742Z,99.99
2016-07-12T03:30:12.799Z,99.99
2016-07-12T03:31:12.653Z,99.99
2016-07-12T03:32:12.647Z,99.99
2016-07-12T03:33:12.652Z,99.99
2016-07-12T03:34:13.013Z,99.99
2016-07-12T03:35:12.873Z,99.99
2016-07-12T03:36:12.681Z,99.99
2016-07-12T03:37:12.995Z,99.99
2016-07-12T03:38:12.706Z,99.99
2016-07-12T03:39:12.650Z,99.99
2016-07-12T03:40:12.673Z,99.99
2016-07-12T03:41:12.682Z,99.99
2016-07-12T03:42:12.656Z,99.99
2016-07-12T03:43:12.652Z,99.99
2016-07-12T03:44:12.680Z,99.99
2016-07-12T03:45:12.684Z,99.99
2016-07-12T03:46:12.679Z,99.99
2016-07-12T03:47:12.647Z,99.99
2016-07-12T03:48:12.687Z,99.99
2016-07-12T03:49:12.658Z,99.99
2016-07-12T03:50:13.298Z,99.99
2016-07-12T03:51:12.683Z,99.99
2016-07-12T03:52:13.584Z,99.99
2016-07-12T03:53:13.139Z,99.99
2016-07-12T03:54:12.660Z,99.99
2016-07-12T03:55:12.682Z,99.99
2016-07-12T03:56:12.690Z,99.99
2016-07-12T03:57:12.800Z,99.99
2016-07-12T03:58:13.300Z,99.81
2016-07-12T03:59:12.664Z,99.33
2016-07-12T04:00:12.692Z,99.24
2016-07-12T04:01:12.718Z,99.43
2016-07-12T04:02:12.714Z,98.76
2016-07-12T04:03:12.675Z,98.95
2016-07-12T04:04:12.692Z,99.24
2016-07-12T04:05:12.720Z,99.15
2016-07-12T04:06:12.691Z,99.43
2016-07-12T04:07:12.698Z,99.91
2016-07-12T04:08:12.743Z,99.62
2016-07-12T04:09:12.718Z,99.72
2016-07-12T04:10:12.677Z,99.67
2016-07-12T04:11:12.709Z,99.62
2016-07-12T04:12:12.682Z,99.43
2016-07-12T04:13:12.681Z,99.1
2016-07-12T04:14:12.684Z,99.29
2016-07-12T04:15:12.681Z,99
2016-07-12T04:16:12.720Z,99.29
2016-07-12T04:17:12.683Z,99
2016-07-12T04:18:12.685Z,99.29
2016-07-12T04:19:12.683Z,98.81
2016-07-12T04:20:12.687Z,99.1
2016-07-12T04:21:12.744Z,99.19
2016-07-12T04:22:12.712Z,99.48
2016-07-12T04:23:12.688Z,99
2016-07-12T04:24:12.715Z,98.71
2016-07-12T04:25:12.751Z,98.71
2016-07-12T04:26:12.697Z,99.1
2016-07-12T04:27:12.714Z,99.29
2016-07-12T04:28:12.730Z,98.91
2016-07-12T04:29:12.705Z,98.62
2016-07-12T04:30:12.757Z,98.71
2016-07-12T04:31:12.716Z,98.43
2016-07-12T04:32:12.722Z,98.05
2016-07-12T04:33:12.713Z,97.85
2016-07-12T04:34:12.690Z,97.75
2016-07-12T04:35:12.698Z,97.8
2016-07-12T04:36:12.703Z,98.05
2016-07-12T04:37:12.715Z,98.05
2016-07-12T04:38:12.688Z,98
2016-07-12T04:39:12.741Z,98.14
2016-07-12T04:40:12.704Z,97.14
2016-07-12T04:41:12.715Z,97.33
2016-07-12T04:42:12.702Z,97.04
2016-07-12T04:43:12.716Z,97.04
2016-07-12T04:44:12.745Z,97.14
2016-07-12T04:45:12.715Z,97.14
2016-07-12T04:46:12.719Z,96.66
2016-07-12T04:47:12.709Z,96.56
2016-07-12T04:48:12.727Z,97.04
2016-07-12T04:49:12.746Z,97.04
2016-07-12T04:50:12.738Z,97.04
2016-07-12T04:51:12.749Z,96.66
2016-07-12T04:52:12.730Z,96.56
2016-07-12T04:53:12.744Z,96.94
2016-07-12T04:54:12.758Z,95.98
2016-07-12T04:55:12.748Z,96.66
2016-07-12T04:56:12.716Z,96.18
2016-07-12T04:57:12.758Z,95.89
2016-07-12T04:58:12.752Z,95.46
2016-07-12T04:59:12.747Z,95.89
2016-07-12T05:00:12.744Z,95.79
2016-07-12T05:01:12.747Z,96.03
2016-07-12T05:02:12.717Z,95.94
2016-07-12T05:03:12.747Z,95.65
2016-07-12T05:04:12.757Z,95.98
2016-07-12T05:05:12.727Z,96.03
2016-07-12T05:06:12.725Z,96.13
2016-07-12T05:07:12.746Z,95.89
2016-07-12T05:08:12.727Z,96.08
2016-07-12T05:09:12.751Z,96.37
2016-07-12T05:10:12.734Z,96.75
2016-07-12T05:11:12.744Z,96.32
2016-07-12T05:12:12.740Z,96.37
2016-07-12T05:13:12.778Z,96.51
2016-07-12T05:14:12.747Z,96.27
2016-07-12T05:15:12.748Z,96.18
2016-07-12T05:16:12.751Z,95.94
2016-07-12T05:17:12.747Z,95.56
2016-07-12T05:18:12.735Z,94.31
2016-07-12T05:19:12.777Z,94.54
2016-07-12T05:20:12.848Z,94.26
2016-07-12T05:21:12.755Z,92.54
2016-07-12T05:22:12.792Z,92.44
2016-07-12T05:23:12.770Z,92.44
2016-07-12T05:24:12.768Z,92.58
2016-07-12T05:25:12.770Z,92.68
2016-07-12T05:26:12.756Z,92.15
2016-07-12T05:27:12.774Z,92.29
2016-07-12T05:28:12.748Z,91.72
2016-07-12T05:29:12.781Z,92.1
2016-07-12T05:30:12.759Z,91.42
2016-07-12T05:31:12.779Z,91.05
2016-07-12T05:32:12.806Z,91.14
2016-07-12T05:33:12.868Z,91.62
2016-07-12T05:34:13.454Z,91.42
2016-07-12T05:35:12.750Z,91.52
2016-07-12T05:36:12.774Z,91.81
2016-07-12T05:37:12.792Z,91.81
2016-07-12T05:38:12.779Z,91.91
2016-07-12T05:39:12.775Z,91.91
2016-07-12T05:40:12.782Z,91.77
2016-07-12T05:41:12.787Z,92.39
2016-07-12T05:42:12.779Z,91.62
2016-07-12T05:43:12.782Z,91.72
2016-07-12T05:44:12.777Z,92.19
2016-07-12T05:45:12.782Z,91.42
2016-07-12T05:46:12.792Z,91.52
2016-07-12T05:47:12.804Z,91.42
2016-07-12T05:48:12.792Z,90.95
2016-07-12T05:49:12.840Z,90.08
2016-07-12T05:50:12.775Z,90.75
2016-07-12T05:51:12.782Z,90.28
2016-07-12T05:52:12.784Z,88.98
2016-07-12T05:53:12.770Z,88.21
2016-07-12T05:54:12.813Z,88.54
2016-07-12T05:55:12.800Z,86.81
2016-07-12T05:56:12.814Z,86.95
2016-07-12T05:57:12.777Z,86.09
2016-07-12T05:58:12.816Z,85.13
2016-07-12T05:59:12.809Z,84.74
2016-07-12T06:00:12.825Z,84.36
2016-07-12T06:01:12.788Z,84.01
2016-07-12T06:02:12.781Z,83.63
2016-07-12T06:03:12.817Z,83.63
2016-07-12T06:04:12.813Z,83.44
2016-07-12T06:05:12.808Z,83.06
2016-07-12T06:06:12.808Z,83.44
2016-07-12T06:07:12.813Z,83.06
2016-07-12T06:08:12.796Z,82.67
2016-07-12T06:09:12.816Z,83.06
2016-07-12T06:10:12.833Z,83.44
2016-07-12T06:11:12.828Z,83.44
2016-07-12T06:12:12.811Z,83.53
2016-07-12T06:13:12.871Z,82.76
2016-07-12T06:14:12.848Z,82.67
2016-07-12T06:15:12.842Z,82.19
2016-07-12T06:16:12.864Z,82.09
2016-07-12T06:17:12.811Z,82.42
2016-07-12T06:18:12.831Z,82.67
2016-07-12T06:19:12.849Z,81.81
2016-07-12T06:20:12.840Z,82.32
2016-07-12T06:21:12.808Z,81.9
2016-07-12T06:22:12.819Z,81.81
2016-07-12T06:23:12.816Z,82.48
2016-07-12T06:24:12.811Z,83.44
2016-07-12T06:25:12.815Z,82.57
2016-07-12T06:26:12.820Z,82.23
2016-07-12T06:27:12.843Z,82.14
2016-07-12T06:28:12.816Z,82.32
2016-07-12T06:29:12.811Z,82.23
2016-07-12T06:30:12.797Z,83
2016-07-12T06:31:12.806Z,82.32
2016-07-12T06:32:12.812Z,82.14
2016-07-12T06:33:12.810Z,82.61
2016-07-12T06:34:12.877Z,82.52
2016-07-12T06:35:12.889Z,82.71
2016-07-12T06:36:12.814Z,82.52
2016-07-12T06:37:12.846Z,81.94
2016-07-12T06:38:14.458Z,80.02
2016-07-12T06:39:12.872Z,79
2016-07-12T06:40:12.841Z,77.78
2016-07-12T06:41:12.876Z,76.48
2016-07-12T06:42:12.863Z,73.72
2016-07-12T06:43:12.850Z,71.86
2016-07-12T06:44:12.856Z,68.84
2016-07-12T06:45:12.865Z,66.88
2016-07-12T06:46:12.842Z,63.53
2016-07-12T06:47:12.929Z,62.95
2016-07-12T06:48:12.842Z,62.79
2016-07-12T06:49:12.870Z,61.59
2016-07-12T06:50:12.937Z,59.49
2016-07-12T06:51:12.856Z,58.23
2016-07-12T06:52:12.875Z,57.19
2016-07-12T06:53:12.858Z,56.25
2016-07-12T06:54:12.853Z,55.31
2016-07-12T06:55:12.840Z,55.41
2016-07-12T06:56:12.914Z,54.92
2016-07-12T06:57:12.839Z,53.88
2016-07-12T06:58:12.855Z,53.91
2016-07-12T06:59:12.844Z,52.84
2016-07-12T07:00:12.913Z,52.28
2016-07-12T07:01:12.838Z,51.23
2016-07-12T07:02:12.851Z,50.46
2016-07-12T07:03:13.151Z,49.49
2016-07-12T07:04:12.887Z,49.8
2016-07-12T07:05:12.917Z,49.22
2016-07-12T07:06:12.867Z,49.41
2016-07-12T07:07:12.867Z,48.36
2016-07-12T07:08:12.854Z,48.56
2016-07-12T07:09:12.860Z,48.78
2016-07-12T07:10:12.881Z,48.17
2016-07-12T07:11:12.848Z,47.76
2016-07-12T07:12:12.857Z,47.88
2016-07-12T07:13:12.877Z,47.52
2016-07-12T07:14:12.883Z,46.73
2016-07-12T07:15:12.917Z,46.73
2016-07-12T07:16:12.881Z,46.34
2016-07-12T07:17:13.075Z,46.64
2016-07-12T07:18:12.884Z,46.51
2016-07-12T07:19:12.857Z,46.73
2016-07-12T07:20:12.919Z,45.86
2016-07-12T07:21:12.989Z,45.88
2016-07-12T07:22:12.900Z,45.49
2016-07-12T07:23:12.905Z,46.47
2016-07-12T07:24:12.879Z,46.17
2016-07-12T07:25:12.875Z,46.08
2016-07-12T07:26:12.887Z,45.1
2016-07-12T07:27:12.896Z,45.12
2016-07-12T07:28:12.876Z,46.1
2016-07-12T07:29:13.038Z,45.59
2016-07-12T07:30:12.902Z,45.81
2016-07-12T07:31:12.942Z,44.34
2016-07-12T07:32:29.033Z,46.39
2016-07-12T07:33:12.896Z,46.05
2016-07-12T07:34:29.891Z,45.88
2016-07-12T07:35:23.091Z,45.59
2016-07-12T07:36:28.960Z,47.71
2016-07-12T07:38:32.624Z,48.3
2016-07-12T07:39:49.104Z,47.54
2016-07-12T07:40:52.342Z,49.61
2016-07-12T07:41:34.479Z,50.53
2016-07-12T07:42:34.485Z,50.89
2016-07-12T07:43:34.473Z,51.77
2016-07-12T07:44:34.510Z,52.33
2016-07-12T07:46:01.671Z,53.37
2016-07-12T07:47:28.865Z,53.89
2016-07-12T07:48:20.799Z,53.92
2016-07-12T07:49:21.299Z,52.93
2016-07-12T07:50:20.958Z,52.01
2016-07-12T07:51:20.764Z,51.55
2016-07-12T07:52:20.916Z,51.16
2016-07-12T07:53:20.783Z,51.65
2016-07-12T07:54:20.759Z,51.18
2016-07-12T07:55:20.980Z,50.96
2016-07-12T07:56:20.766Z,50.94
2016-07-12T07:57:20.794Z,52.69
2016-07-12T07:58:20.792Z,53.85
2016-07-12T07:59:20.864Z,53.61
2016-07-12T08:00:20.795Z,52.3
2016-07-12T08:01:20.774Z,52.69
2016-07-12T08:02:20.986Z,51.75
2016-07-12T08:03:20.803Z,52.52
2016-07-12T08:04:20.797Z,52.03
2016-07-12T08:05:20.783Z,52.62
2016-07-12T08:06:21.230Z,52.13
2016-07-12T08:07:21.187Z,52.11
2016-07-12T08:08:21.440Z,52.42
2016-07-12T08:09:20.892Z,52.3
2016-07-12T08:10:20.781Z,52.5
2016-07-12T08:11:21.181Z,53.37
2016-07-12T08:12:20.808Z,53.95
2016-07-12T08:13:20.815Z,52.5
2016-07-12T08:14:20.910Z,52.69
2016-07-12T08:15:20.813Z,53.34
2016-07-12T08:16:20.908Z,53.22
2016-07-12T08:17:21.267Z,54.19
2016-07-12T08:18:20.827Z,54.86
2016-07-12T08:19:20.848Z,55.04
2016-07-12T08:20:20.889Z,54.94
2016-07-12T08:21:20.805Z,54.86
2016-07-12T08:22:20.786Z,56
2016-07-12T08:23:20.866Z,55.32
2016-07-12T08:24:21.328Z,55.71
2016-07-12T08:25:20.793Z,56.97
2016-07-12T08:26:21.499Z,57.17
2016-07-12T08:27:20.812Z,56.94
2016-07-12T08:28:21.021Z,57.65
2016-07-12T08:29:20.831Z,57.75
2016-07-12T08:31:04.935Z,57.75
2016-07-12T08:32:07.895Z,58.11
2016-07-12T08:33:07.775Z,57.91
2016-07-12T08:34:07.807Z,58.3
2016-07-12T08:35:07.826Z,58.27
2016-07-12T08:36:07.753Z,58.39
2016-07-12T08:37:07.756Z,58.39
2016-07-12T08:38:08.165Z,57.71
2016-07-12T08:39:08.453Z,57.81
2016-07-12T08:40:07.948Z,57.43
2016-07-12T08:41:07.882Z,57.59
2016-07-12T08:42:07.759Z,58.04
2016-07-12T08:43:07.914Z,59.11
2016-07-12T08:44:08.348Z,59.01
2016-07-12T08:45:07.761Z,60.11
2016-07-12T08:46:07.781Z,59.89
2016-07-12T08:47:07.743Z,59.33
2016-07-12T08:48:07.785Z,59.43
2016-07-12T08:49:07.876Z,58.65
2016-07-12T08:50:07.809Z,60.21
2016-07-12T08:51:07.963Z,61.18
2016-07-12T08:52:08.044Z,60.95
2016-07-12T08:53:07.750Z,61.63
2016-07-12T08:54:07.956Z,61.3
2016-07-12T08:55:07.791Z,61.63
2016-07-12T08:56:08.559Z,60.85
2016-07-12T08:57:07.861Z,59.79
2016-07-12T08:58:07.995Z,60.37
2016-07-12T08:59:08.211Z,60.53
2016-07-12T09:00:07.878Z,60.44
2016-07-12T09:01:07.811Z,61.3
2016-07-12T09:02:07.780Z,61.79
2016-07-12T09:03:07.811Z,60.82
2016-07-12T09:04:07.837Z,61.3
2016-07-12T09:05:07.815Z,61.43
2016-07-12T09:06:08.572Z,61.82
2016-07-12T09:07:07.878Z,61.43
2016-07-12T09:08:07.817Z,61.4
2016-07-12T09:09:07.807Z,61.76
2016-07-12T09:10:07.853Z,61.95
2016-07-12T09:11:07.951Z,62.53
2016-07-12T09:12:08.283Z,62.05
2016-07-12T09:13:07.850Z,63.11
2016-07-12T09:14:07.885Z,63.79
2016-07-12T09:15:07.849Z,63.5
2016-07-12T09:16:07.823Z,63.31
2016-07-12T09:17:07.798Z,63.69
2016-07-12T09:18:07.798Z,64.27
2016-07-12T09:19:07.804Z,63.85
2016-07-12T09:20:07.799Z,64.92
2016-07-12T09:21:07.806Z,63.37
2016-07-12T09:22:08.175Z,62.89
2016-07-12T09:23:07.834Z,62.98
2016-07-12T09:24:08.182Z,64.43
2016-07-12T09:25:07.825Z,63.47
2016-07-12T09:26:07.805Z,63.89
2016-07-12T09:27:07.809Z,63.98
2016-07-12T09:28:07.786Z,64.47
2016-07-12T09:29:07.839Z,63.6
2016-07-12T09:30:07.813Z,63.53
2016-07-12T09:31:08.097Z,62.85
2016-07-12T09:32:08.269Z,64.79
2016-07-12T09:33:07.845Z,62.08
2016-07-12T09:34:08.351Z,63.05
2016-07-12T09:35:07.856Z,62.37
2016-07-12T09:36:08.087Z,62.53
2016-07-12T09:37:08.689Z,62.47
2016-07-12T09:38:07.811Z,61.89
2016-07-12T09:39:08.363Z,61.79
2016-07-12T09:40:07.812Z,61.43
2016-07-12T09:41:07.966Z,62.21
2016-07-12T09:42:08.409Z,63.05
2016-07-12T09:43:08.027Z,63.14
2016-07-12T09:44:07.809Z,62.24
2016-07-12T09:45:07.827Z,61.98
2016-07-12T09:46:07.862Z,62.53
2016-07-12T09:47:07.819Z,62.05
2016-07-12T09:48:07.866Z,62.24
2016-07-12T09:49:07.843Z,62.18
2016-07-12T09:50:07.819Z,63.31
2016-07-12T09:51:07.810Z,62.18
2016-07-12T09:52:07.837Z,62.18
2016-07-12T09:53:07.850Z,62.5
2016-07-12T09:54:07.872Z,61.98
2016-07-12T09:55:07.865Z,60.95
2016-07-12T09:56:07.882Z,61.69
2016-07-12T09:57:07.903Z,61.6
2016-07-12T09:58:07.830Z,61.72
2016-07-12T09:59:07.871Z,61.72
2016-07-12T10:00:07.945Z,61.6
2016-07-12T10:01:07.843Z,62.56
2016-07-12T10:02:07.831Z,62.37
2016-07-12T10:03:07.842Z,61.79
2016-07-12T10:04:08.064Z,61.98
2016-07-12T10:05:07.843Z,61.79
2016-07-12T10:06:07.831Z,62.5
2016-07-12T10:07:08.030Z,63.37
2016-07-12T10:08:08.021Z,63.08
2016-07-12T10:09:07.874Z,63.56
2016-07-12T10:10:07.853Z,62.27
2016-07-12T10:11:08.522Z,61.53
2016-07-12T10:12:07.857Z,60.95
2016-07-12T10:13:07.872Z,60.85
2016-07-12T10:14:07.914Z,60.34
2016-07-12T10:15:07.921Z,61.4
2016-07-12T10:16:07.845Z,60.79
2016-07-12T10:17:07.852Z,61.3
2016-07-12T10:18:07.842Z,62.18
2016-07-12T10:19:07.870Z,61.3
2016-07-12T10:20:07.901Z,62.5
2016-07-12T10:21:07.879Z,64.82
2016-07-12T10:22:08.606Z,61.66
2016-07-12T10:23:07.898Z,59.82
2016-07-12T10:24:08.382Z,59.14
2016-07-12T10:25:07.883Z,59.17
2016-07-12T10:26:07.872Z,59.07
2016-07-12T10:27:07.881Z,57.88
2016-07-12T10:28:07.876Z,57.69
2016-07-12T10:29:07.861Z,57.5
2016-07-12T10:30:07.853Z,58.65
2016-07-12T10:31:08.070Z,57.62
2016-07-12T10:32:07.853Z,57.23
2016-07-12T10:33:07.870Z,57.43
2016-07-12T10:34:07.877Z,57.75
2016-07-12T10:35:11.867Z,56.65
2016-07-12T10:36:11.848Z,57.36
2016-07-12T10:37:11.882Z,56.41
2016-07-12T10:38:11.855Z,56
2016-07-12T10:39:11.871Z,55.35
2016-07-12T10:40:12.243Z,56.71
2016-07-12T10:41:11.865Z,56.51
2016-07-12T10:42:11.933Z,54.28
2016-07-12T10:43:11.830Z,53.99
2016-07-12T10:44:11.853Z,54.67
2016-07-12T10:45:11.842Z,54.74
2016-07-12T10:46:11.853Z,54.67
2016-07-12T10:47:11.857Z,55.54
2016-07-12T10:48:11.828Z,56.03
2016-07-12T10:49:11.836Z,53.39
2016-07-12T10:50:11.869Z,53.77
2016-07-12T10:51:11.874Z,54.06
2016-07-12T10:52:11.822Z,55.04
2016-07-12T10:53:11.946Z,55.3
2016-07-12T10:54:11.844Z,55.68
2016-07-12T10:55:11.930Z,56.26
2016-07-12T10:56:11.863Z,56.85
2016-07-12T10:57:11.837Z,56.46
2016-07-12T10:58:11.826Z,56.07
2016-07-12T10:59:11.820Z,55.62
2016-07-12T11:00:11.835Z,55.32
2016-07-12T11:01:11.874Z,55.9
2016-07-12T11:02:12.109Z,56.39
2016-07-12T11:03:11.860Z,56.29
2016-07-12T11:04:11.886Z,55.81
2016-07-12T11:05:11.873Z,56
2016-07-12T11:06:11.939Z,55.32
2016-07-12T11:07:11.912Z,54.84
2016-07-12T11:08:11.900Z,54.45
2016-07-12T11:09:11.983Z,54.55
2016-07-12T11:10:11.875Z,55.81
2016-07-12T11:11:11.879Z,54.67
2016-07-12T11:12:11.876Z,53.89
2016-07-12T11:13:11.910Z,54.28
2016-07-12T11:14:11.885Z,54.86
2016-07-12T11:15:11.895Z,54.19
2016-07-12T11:16:11.926Z,53.02
2016-07-12T11:17:11.962Z,54.67
2016-07-12T11:18:11.987Z,53.77
2016-07-12T11:19:11.867Z,54.35
2016-07-12T11:20:12.057Z,54.45
2016-07-12T11:21:12.120Z,53.31
2016-07-12T11:22:11.872Z,54.26
2016-07-12T11:23:11.906Z,54.48
2016-07-12T11:24:11.869Z,54.06
2016-07-12T11:25:11.969Z,52.44
2016-07-12T11:26:11.900Z,53.51
2016-07-12T11:27:11.984Z,53.49
2016-07-12T11:28:11.876Z,55.9
2016-07-12T11:29:11.898Z,54.64
2016-07-12T11:30:12.562Z,54.55
2016-07-12T11:31:12.057Z,54.64
2016-07-12T11:32:12.189Z,55.13
2016-07-12T11:33:11.913Z,54.06
2016-07-12T11:34:12.027Z,54.45
2016-07-12T11:35:11.909Z,54.28
2016-07-12T11:36:11.933Z,54.28
2016-07-12T11:37:12.077Z,54.58
2016-07-12T11:38:12.023Z,54.86
2016-07-12T11:39:11.991Z,54.19
2016-07-12T11:40:11.906Z,53.22
2016-07-12T11:41:12.118Z,51.79
2016-07-12T11:42:11.932Z,52.56
2016-07-12T11:43:11.899Z,52.95
2016-07-12T11:44:11.915Z,52.28
2016-07-12T11:45:12.050Z,51.21
2016-07-12T11:46:12.029Z,50.94
2016-07-12T11:47:11.972Z,52.69
2016-07-12T11:48:11.929Z,51.23
2016-07-12T11:49:11.903Z,50.77
2016-07-12T11:50:11.923Z,50.58
2016-07-12T11:51:11.904Z,50.68
2016-07-12T11:52:11.881Z,50.58
2016-07-12T11:53:11.931Z,50.09
2016-07-12T11:54:11.908Z,50.48
2016-07-12T11:55:11.931Z,49.71
2016-07-12T11:56:11.973Z,49.71
2016-07-12T11:57:12.018Z,49.9
2016-07-12T11:58:11.945Z,50.31
2016-07-12T11:59:12.118Z,50.41
2016-07-12T12:00:12.044Z,49.63
2016-07-12T12:01:12.358Z,49.34
2016-07-12T12:02:11.896Z,49.05
2016-07-12T12:03:12.010Z,48.64
2016-07-12T12:04:11.950Z,48.64
2016-07-12T12:05:11.928Z,48.22
2016-07-12T12:06:12.165Z,48.71
2016-07-12T12:07:11.946Z,50.14
2016-07-12T12:08:12.001Z,50.16
2016-07-12T12:09:12.021Z,51.31
2016-07-12T12:10:12.093Z,51.62
2016-07-12T12:11:11.945Z,51.31
2016-07-12T12:12:11.960Z,51.91
2016-07-12T12:13:12.002Z,51.43
2016-07-12T12:14:11.997Z,51.14
2016-07-12T12:15:11.993Z,50.56
2016-07-12T12:16:12.295Z,49.58
2016-07-12T12:17:11.980Z,50.04
2016-07-12T12:18:11.936Z,49.56
2016-07-12T12:19:11.931Z,49.95
2016-07-12T12:20:11.938Z,50.43
2016-07-12T12:21:11.930Z,50.62
2016-07-12T12:22:11.910Z,52.47
2016-07-12T12:23:11.954Z,52.28
2016-07-12T12:24:12.068Z,52.5
2016-07-12T12:25:12.168Z,52.66
2016-07-12T12:26:11.947Z,50.43
2016-07-12T12:27:12.234Z,50.72
2016-07-12T12:28:11.928Z,50.5
2016-07-12T12:29:11.947Z,50.62
2016-07-12T12:30:12.015Z,51.31
2016-07-12T12:31:12.073Z,49.95
2016-07-12T12:32:12.022Z,50.04
2016-07-12T12:33:11.962Z,50.14
2016-07-12T12:34:12.203Z,49.97
2016-07-12T12:35:11.962Z,48.88
2016-07-12T12:36:11.955Z,48.69
2016-07-12T12:37:11.985Z,48.42
2016-07-12T12:38:12.606Z,49.56
2016-07-12T12:39:11.962Z,49.19
2016-07-12T12:40:11.952Z,49.95
2016-07-12T12:41:12.151Z,49.66
2016-07-12T12:42:12.008Z,49.39
2016-07-12T12:43:11.961Z,50.46
2016-07-12T12:44:11.949Z,50.92
2016-07-12T12:45:11.966Z,49.95
2016-07-12T12:46:11.973Z,48.71
2016-07-12T12:47:12.010Z,49.49
2016-07-12T12:48:11.937Z,49.19
2016-07-12T12:49:11.993Z,49.49
2016-07-12T12:50:11.975Z,49.1
2016-07-12T12:51:11.966Z,49.27
2016-07-12T12:52:11.991Z,49
2016-07-12T12:53:12.016Z,49.49
2016-07-12T12:54:11.997Z,50.07
2016-07-12T12:55:12.740Z,48.61
2016-07-12T12:56:11.959Z,49.49
2016-07-12T12:57:11.993Z,49.29
2016-07-12T12:58:11.987Z,48.93